Sandy Valley, Nevada
Current Conditions -  °F | °C
As of 12:56 PM on Saturday 20 Dec 2014 (Local Time) from KHND Reporting Station
Clear Clear  
Wind Chill: 53°   Ceiling: Unl
Heat Index: 53°   Visibility: 8mi
Dew Point: 38°   Wind: 5mph
Humidity: 57%   Direction: NA
Pressure: 30.13"   Gusts: NA
Location:  35.8439°N, 115.475°W
Report Text: KHND 202056Z VRB04KT 8SM CLR 12/03 A3013 RMK AO2 SLP206 T01170033 58025
Loading
Personal Weather Stations






























Interactive Weather Map New forecast layout! Learn more

10-Day Weather Forecast

Advertisements
Track Severe Weather on mobile